createdAt,value
2023-03-02T00:00:38.387Z,101355.72
2023-03-02T00:05:41.632Z,101357.88
2023-03-02T00:10:45.874Z,101355.31
2023-03-02T00:15:48.806Z,101353.47
2023-03-02T00:20:51.562Z,101360.22
2023-03-02T00:25:55.591Z,101362.50
2023-03-02T00:30:58.335Z,101360.06
2023-03-02T00:36:01.434Z,101364.19
2023-03-02T00:41:05.835Z,101363.91
2023-03-02T00:46:12.615Z,101355.03
2023-03-02T00:51:16.036Z,101357.94
2023-03-02T00:56:20.214Z,101365.25
2023-03-02T01:01:25.934Z,101363.13
2023-03-02T01:06:29.638Z,101370.75
2023-03-02T01:11:33.845Z,101367.25
2023-03-02T01:16:37.459Z,101363.91
2023-03-02T01:21:41.575Z,101355.69
2023-03-02T01:26:45.661Z,101358.72
2023-03-02T01:31:48.809Z,101350.19
2023-03-02T01:36:51.670Z,101345.91
2023-03-02T01:41:55.937Z,101337.38
2023-03-02T01:46:58.868Z,101346.25
2023-03-02T01:52:02.242Z,101341.50
2023-03-02T01:57:07.389Z,101327.00
2023-03-02T02:02:11.636Z,101321.66
2023-03-02T02:07:14.379Z,101320.13
2023-03-02T02:12:21.480Z,101314.19
2023-03-02T02:17:24.302Z,101307.47
2023-03-02T02:22:38.068Z,101304.72
2023-03-02T02:27:42.245Z,101295.59
2023-03-02T02:32:45.587Z,101294.22
2023-03-02T02:37:52.103Z,101295.63
2023-03-02T02:42:57.410Z,101284.34
2023-03-02T02:48:00.251Z,101284.34
2023-03-02T02:53:06.254Z,101287.28
2023-03-02T02:58:22.020Z,101286.22
2023-03-02T03:03:32.747Z,101287.59
2023-03-02T03:08:56.976Z,101293.53
2023-03-02T03:14:36.552Z,101296.00
2023-03-02T03:19:42.620Z,101297.81
2023-03-02T03:24:46.570Z,101299.03
2023-03-02T03:29:53.086Z,101303.16
2023-03-02T03:34:56.965Z,101309.53
2023-03-02T03:40:09.298Z,101302.69
2023-03-02T03:45:15.009Z,101301.78
2023-03-02T03:50:20.014Z,101305.44
2023-03-02T03:55:23.041Z,101300.72
2023-03-02T04:00:28.137Z,101303.75
2023-03-02T04:05:41.297Z,101301.94
2023-03-02T04:10:44.247Z,101296.31
2023-03-02T04:15:48.792Z,101297.81
2023-03-02T04:20:52.043Z,101300.72
2023-03-02T04:25:54.918Z,101294.16
2023-03-02T04:31:02.307Z,101296.13
2023-03-02T04:36:06.067Z,101292.34
2023-03-02T04:41:09.121Z,101291.41
2023-03-02T04:46:15.914Z,101290.03
2023-03-02T04:51:23.960Z,101295.38
2023-03-02T04:56:26.803Z,101285.63
2023-03-02T05:01:31.090Z,101301.16
2023-03-02T05:06:34.557Z,101291.72
2023-03-02T05:11:38.612Z,101290.81
2023-03-02T05:16:43.338Z,101296.25
2023-03-02T05:21:46.640Z,101294.00
2023-03-02T05:26:49.643Z,101285.19
2023-03-02T05:31:53.895Z,101282.75
2023-03-02T05:36:58.093Z,101288.06
2023-03-02T05:42:00.964Z,101286.53
2023-03-02T05:47:05.192Z,101285.16
2023-03-02T05:52:07.944Z,101289.25
2023-03-02T05:57:10.664Z,101295.00
2023-03-02T06:02:14.849Z,101284.53
2023-03-02T06:07:17.775Z,101297.88
2023-03-02T06:12:20.590Z,101300.19
2023-03-02T06:17:24.783Z,101296.06
2023-03-02T06:22:27.886Z,101305.94
2023-03-02T06:27:30.763Z,101308.22
2023-03-02T06:32:35.537Z,101298.00
2023-03-02T06:37:40.112Z,101313.25
2023-03-02T06:42:43.856Z,101320.84
2023-03-02T06:47:48.343Z,101324.50
2023-03-02T06:52:51.109Z,101321.03
2023-03-02T06:57:53.883Z,101315.25
2023-03-02T07:02:58.069Z,101317.22
2023-03-02T07:08:01.029Z,101320.69
2023-03-02T07:13:03.942Z,101315.41
2023-03-02T07:18:08.307Z,101315.63
2023-03-02T07:23:11.010Z,101313.63
2023-03-02T07:28:13.762Z,101314.25
2023-03-02T07:33:18.152Z,101316.09
2023-03-02T07:38:20.901Z,101321.88
2023-03-02T07:43:24.007Z,101310.44
2023-03-02T07:48:28.275Z,101317.59
2023-03-02T07:53:31.389Z,101315.13
2023-03-02T07:58:35.347Z,101312.00
2023-03-02T08:03:39.775Z,101312.41
2023-03-02T08:08:42.530Z,101316.13
2023-03-02T08:13:46.147Z,101309.94
2023-03-02T08:18:50.315Z,101314.13
2023-03-02T08:23:53.511Z,101311.31
2023-03-02T08:28:56.295Z,101304.41
2023-03-02T08:34:00.550Z,101307.31
2023-03-02T08:39:03.736Z,101311.16
2023-03-02T08:44:07.458Z,101311.03
2023-03-02T08:49:11.572Z,101307.22
2023-03-02T08:54:14.688Z,101296.75
2023-03-02T08:59:18.223Z,101299.63
2023-03-02T09:04:22.377Z,101288.31
2023-03-02T09:09:25.252Z,101288.91
2023-03-02T09:14:28.319Z,101285.13
2023-03-02T09:19:37.529Z,101282.44
2023-03-02T09:24:40.285Z,101279.22
2023-03-02T09:29:43.259Z,101278.19
2023-03-02T09:34:47.455Z,101287.06
2023-03-02T09:39:50.381Z,101272.56
2023-03-02T09:45:03.137Z,101272.84
2023-03-02T09:50:18.165Z,101270.63
2023-03-02T09:55:24.968Z,101278.31
2023-03-02T10:00:30.185Z,101278.31
2023-03-02T10:05:38.914Z,101268.41
2023-03-02T10:10:45.414Z,101266.03
2023-03-02T10:16:01.328Z,101266.38
2023-03-02T10:21:09.796Z,101263.41
2023-03-02T10:26:22.664Z,101270.97
2023-03-02T10:31:28.765Z,101273.16
2023-03-02T10:36:38.798Z,101267.91
2023-03-02T10:41:46.130Z,101268.75
2023-03-02T10:46:48.972Z,101262.66
2023-03-02T10:51:58.789Z,101268.00
2023-03-02T10:57:03.983Z,101256.41
2023-03-02T11:02:14.876Z,101252.59
2023-03-02T11:07:20.538Z,101257.63
2023-03-02T11:12:24.197Z,101252.06
2023-03-02T11:17:35.529Z,101246.09
2023-03-02T11:22:43.126Z,101244.75
2023-03-02T11:27:46.298Z,101241.22
2023-03-02T11:32:53.723Z,101225.47
2023-03-02T11:38:01.272Z,101208.22
2023-03-02T11:43:05.526Z,101219.47
2023-03-02T11:48:12.940Z,101209.59
2023-03-02T11:53:19.257Z,101193.63
2023-03-02T11:58:23.526Z,101196.81
2023-03-02T12:03:40.655Z,101187.72
2023-03-02T12:08:46.873Z,101194.88
2023-03-02T12:14:00.552Z,101186.88
2023-03-02T12:19:15.142Z,101180.16
2023-03-02T12:24:27.862Z,101168.66
2023-03-02T12:29:40.299Z,101173.66
2023-03-02T12:34:44.207Z,101169.13
2023-03-02T12:40:09.647Z,101167.38
2023-03-02T12:45:21.759Z,101162.97
2023-03-02T12:50:27.264Z,101141.91
2023-03-02T12:55:32.385Z,101145.53
2023-03-02T13:00:37.047Z,101140.81
2023-03-02T13:05:39.932Z,101118.09
2023-03-02T13:10:46.033Z,101117.44
2023-03-02T13:15:49.447Z,101106.03
2023-03-02T13:20:52.909Z,101095.16
2023-03-02T13:25:58.473Z,101090.69
2023-03-02T13:31:03.891Z,101084.50
2023-03-02T13:36:07.206Z,101093.44
2023-03-02T13:41:22.514Z,101092.00
2023-03-02T13:46:36.700Z,101087.44
2023-03-02T13:51:42.045Z,101089.44
2023-03-02T13:56:46.463Z,101082.03
2023-03-02T14:01:49.716Z,101078.97
2023-03-02T14:06:53.568Z,101076.09
2023-03-02T14:11:58.171Z,101068.03
2023-03-02T14:17:00.939Z,101062.72
2023-03-02T14:22:03.733Z,101053.66
2023-03-02T14:27:09.399Z,101046.03
2023-03-02T14:32:14.316Z,101047.66
2023-03-02T14:37:19.038Z,101031.38
2023-03-02T14:42:23.739Z,101023.75
2023-03-02T14:47:26.485Z,101019.53
2023-03-02T14:52:33.434Z,101020.50
2023-03-02T14:57:39.214Z,101021.41
2023-03-02T15:02:42.476Z,101021.69
2023-03-02T15:07:45.366Z,101030.06
2023-03-02T15:12:49.792Z,101026.59
2023-03-02T15:17:52.631Z,101043.00
2023-03-02T15:22:55.446Z,101037.09
2023-03-02T15:27:59.580Z,101034.59
2023-03-02T15:33:02.565Z,101022.91
2023-03-02T15:38:05.381Z,101012.94
2023-03-02T15:43:09.701Z,101018.19
2023-03-02T15:48:13.647Z,101018.47
2023-03-02T15:53:16.487Z,101019.28
2023-03-02T15:58:21.828Z,101027.16
2023-03-02T16:03:25.197Z,101031.72
2023-03-02T16:08:28.189Z,101052.56
2023-03-02T16:13:32.471Z,101053.94
2023-03-02T16:18:35.198Z,101058.69
2023-03-02T16:23:37.979Z,101057.06
2023-03-02T16:28:42.375Z,101062.47
2023-03-02T16:33:45.788Z,101069.28
2023-03-02T16:38:48.667Z,101071.53
2023-03-02T16:43:54.102Z,101065.44
2023-03-02T16:48:57.918Z,101086.03
2023-03-02T16:54:00.659Z,101075.38
2023-03-02T16:59:04.805Z,101084.81
2023-03-02T17:04:07.715Z,101092.75
2023-03-02T17:09:13.447Z,101097.81
2023-03-02T17:14:17.932Z,101095.75
2023-03-02T17:19:20.832Z,101109.44
2023-03-02T17:24:23.597Z,101121.66
2023-03-02T17:29:27.720Z,101126.38
2023-03-02T17:34:31.371Z,101132.94
2023-03-02T17:39:34.439Z,101130.72
2023-03-02T17:44:40.815Z,101143.66
2023-03-02T17:49:45.190Z,101141.41
2023-03-02T17:54:48.025Z,101159.28
2023-03-02T17:59:52.209Z,101153.56
2023-03-02T18:04:54.944Z,101156.22
2023-03-02T18:09:57.660Z,101158.03
2023-03-02T18:15:01.887Z,101170.78
2023-03-02T18:20:05.252Z,101169.50
2023-03-02T18:25:08.601Z,101177.81
2023-03-02T18:30:13.616Z,101183.81
2023-03-02T18:35:17.085Z,101186.25
2023-03-02T18:40:20.062Z,101188.19
2023-03-02T18:45:26.310Z,101194.03
2023-03-02T18:50:29.936Z,101188.88
2023-03-02T18:55:32.855Z,101194.47
2023-03-02T19:00:37.502Z,101203.22
2023-03-02T19:05:40.344Z,101203.00
2023-03-02T19:10:43.074Z,101201.31
2023-03-02T19:15:47.804Z,101203.84
2023-03-02T19:20:51.616Z,101213.88
2023-03-02T19:25:54.320Z,101208.59
2023-03-02T19:30:58.358Z,101211.28
2023-03-02T19:36:01.145Z,101216.84
2023-03-02T19:41:03.865Z,101214.75
2023-03-02T19:46:08.003Z,101213.34
2023-03-02T19:51:11.973Z,101215.53
2023-03-02T19:56:15.964Z,101231.38
2023-03-02T20:01:24.609Z,101234.38
2023-03-02T20:06:30.388Z,101279.47
2023-03-02T20:11:33.369Z,101283.72
2023-03-02T20:16:38.773Z,101295.59
2023-03-02T20:21:41.709Z,101290.16
2023-03-02T20:26:44.482Z,101291.03
2023-03-02T20:31:48.686Z,101285.63
2023-03-02T20:36:51.479Z,101281.69
2023-03-02T20:41:54.652Z,101279.03
2023-03-02T20:47:02.814Z,101277.19
2023-03-02T20:52:07.030Z,101265.66
2023-03-02T20:57:10.397Z,101267.75
2023-03-02T21:02:15.213Z,101264.75
2023-03-02T21:07:18.280Z,101266.44
2023-03-02T21:12:20.984Z,101251.69
2023-03-02T21:17:25.635Z,101259.69
2023-03-02T21:22:28.439Z,101268.94
2023-03-02T21:27:31.382Z,101268.13
2023-03-02T21:32:35.620Z,101259.00
2023-03-02T21:37:38.386Z,101257.09
2023-03-02T21:42:41.110Z,101267.22
2023-03-02T21:47:45.770Z,101264.28
2023-03-02T21:52:48.559Z,101264.41
2023-03-02T21:57:51.270Z,101262.06
2023-03-02T22:02:55.281Z,101275.13
2023-03-02T22:07:58.021Z,101270.34
2023-03-02T22:13:18.053Z,101276.31
2023-03-02T22:18:25.089Z,101271.63
2023-03-02T22:23:27.825Z,101278.53
2023-03-02T22:28:30.609Z,101294.69
2023-03-02T22:33:35.324Z,101303.69
2023-03-02T22:38:38.093Z,101306.50
2023-03-02T22:43:40.786Z,101311.56
2023-03-02T22:48:45.855Z,101313.69
2023-03-02T22:53:50.993Z,101309.28
2023-03-02T22:58:53.931Z,101322.53
2023-03-02T23:04:02.311Z,101340.16
2023-03-02T23:09:07.164Z,101344.91
2023-03-02T23:14:15.445Z,101371.81
2023-03-02T23:19:19.894Z,101370.81
2023-03-02T23:24:22.948Z,101389.56
2023-03-02T23:29:25.705Z,101409.22
2023-03-02T23:34:31.216Z,101445.75
2023-03-02T23:39:34.059Z,101454.75
2023-03-02T23:44:36.763Z,101461.94
2023-03-02T23:49:40.936Z,101466.66
2023-03-02T23:54:46.116Z,101464.53
2023-03-02T23:59:48.925Z,101470.31
